sensor_id;sensor_type;location;lat;lon;timestamp;pressure;altitude;pressure_sealevel;temperature;humidity
84501;BME280;74725;44.210;17.906;2024-02-26T00:02:18;97260.41;;;11.15;100.00
84501;BME280;74725;44.210;17.906;2024-02-26T00:04:43;97269.44;;;11.03;100.00
84501;BME280;74725;44.210;17.906;2024-02-26T00:07:09;97258.91;;;10.92;100.00
84501;BME280;74725;44.210;17.906;2024-02-26T00:09:35;97267.25;;;10.89;100.00
84501;BME280;74725;44.210;17.906;2024-02-26T00:12:03;97275.34;;;10.92;100.00
84501;BME280;74725;44.210;17.906;2024-02-26T00:14:32;97260.59;;;10.99;100.00
84501;BME280;74725;44.210;17.906;2024-02-26T00:16:57;97268.69;;;11.02;100.00
84501;BME280;74725;44.210;17.906;2024-02-26T00:19:23;97260.94;;;11.01;100.00
84501;BME280;74725;44.210;17.906;2024-02-26T00:21:48;97259.31;;;11.13;100.00
84501;BME280;74725;44.210;17.906;2024-02-26T00:24:14;97271.34;;;11.15;100.00
84501;BME280;74725;44.210;17.906;2024-02-26T00:26:39;97262.63;;;11.08;100.00
84501;BME280;74725;44.210;17.906;2024-02-26T00:29:05;97269.94;;;11.11;100.00
84501;BME280;74725;44.210;17.906;2024-02-26T00:31:31;97266.19;;;11.17;100.00
84501;BME280;74725;44.210;17.906;2024-02-26T00:33:56;97252.22;;;11.24;100.00
84501;BME280;74725;44.210;17.906;2024-02-26T00:36:22;97263.47;;;11.26;100.00
84501;BME280;74725;44.210;17.906;2024-02-26T00:38:48;97254.94;;;11.24;100.00
84501;BME280;74725;44.210;17.906;2024-02-26T00:41:20;97243.03;;;11.18;100.00
84501;BME280;74725;44.210;17.906;2024-02-26T00:43:46;97249.59;;;11.21;100.00
84501;BME280;74725;44.210;17.906;2024-02-26T00:46:11;97251.00;;;11.25;100.00
84501;BME280;74725;44.210;17.906;2024-02-26T00:48:37;97252.97;;;11.25;100.00
84501;BME280;74725;44.210;17.906;2024-02-26T00:51:03;97252.66;;;11.23;100.00
84501;BME280;74725;44.210;17.906;2024-02-26T00:53:33;97247.63;;;11.21;100.00
84501;BME280;74725;44.210;17.906;2024-02-26T00:55:58;97243.00;;;11.09;100.00
84501;BME280;74725;44.210;17.906;2024-02-26T00:58:25;97249.97;;;11.01;100.00
84501;BME280;74725;44.210;17.906;2024-02-26T01:00:50;97237.69;;;11.15;100.00
84501;BME280;74725;44.210;17.906;2024-02-26T01:03:18;97241.84;;;11.19;100.00
84501;BME280;74725;44.210;17.906;2024-02-26T01:05:44;97246.13;;;11.30;100.00
84501;BME280;74725;44.210;17.906;2024-02-26T01:08:10;97252.22;;;11.24;100.00
84501;BME280;74725;44.210;17.906;2024-02-26T01:10:35;97247.50;;;11.25;100.00
84501;BME280;74725;44.210;17.906;2024-02-26T01:13:01;97247.22;;;11.32;100.00
84501;BME280;74725;44.210;17.906;2024-02-26T01:15:27;97235.31;;;11.26;100.00
84501;BME280;74725;44.210;17.906;2024-02-26T01:17:53;97245.34;;;11.20;100.00
84501;BME280;74725;44.210;17.906;2024-02-26T01:20:19;97240.88;;;11.13;100.00
84501;BME280;74725;44.210;17.906;2024-02-26T01:22:45;97242.88;;;11.13;100.00
84501;BME280;74725;44.210;17.906;2024-02-26T01:25:10;97234.38;;;11.20;100.00
84501;BME280;74725;44.210;17.906;2024-02-26T01:27:36;97245.34;;;11.20;100.00
84501;BME280;74725;44.210;17.906;2024-02-26T01:30:06;97241.13;;;11.28;100.00
84501;BME280;74725;44.210;17.906;2024-02-26T01:32:31;97237.13;;;11.20;100.00
84501;BME280;74725;44.210;17.906;2024-02-26T01:34:57;97243.78;;;11.19;100.00
84501;BME280;74725;44.210;17.906;2024-02-26T01:37:23;97227.94;;;11.14;100.00
84501;BME280;74725;44.210;17.906;2024-02-26T01:39:49;97241.00;;;11.00;100.00
84501;BME280;74725;44.210;17.906;2024-02-26T01:42:15;97231.88;;;11.04;100.00
84501;BME280;74725;44.210;17.906;2024-02-26T01:44:40;97230.41;;;11.12;100.00
84501;BME280;74725;44.210;17.906;2024-02-26T01:47:09;97240.41;;;11.06;100.00
84501;BME280;74725;44.210;17.906;2024-02-26T01:49:36;97228.09;;;11.10;100.00
84501;BME280;74725;44.210;17.906;2024-02-26T01:52:02;97221.53;;;11.08;100.00
84501;BME280;74725;44.210;17.906;2024-02-26T01:54:29;97228.41;;;11.12;100.00
84501;BME280;74725;44.210;17.906;2024-02-26T01:56:56;97225.28;;;11.23;100.00
84501;BME280;74725;44.210;17.906;2024-02-26T01:59:22;97209.75;;;11.29;100.00
84501;BME280;74725;44.210;17.906;2024-02-26T02:01:52;97219.31;;;11.24;100.00
84501;BME280;74725;44.210;17.906;2024-02-26T02:04:20;97214.88;;;11.18;100.00
84501;BME280;74725;44.210;17.906;2024-02-26T02:06:47;97215.16;;;11.11;100.00
84501;BME280;74725;44.210;17.906;2024-02-26T02:09:12;97220.31;;;11.09;100.00
84501;BME280;74725;44.210;17.906;2024-02-26T02:11:38;97218.31;;;11.00;100.00
84501;BME280;74725;44.210;17.906;2024-02-26T02:14:04;97200.78;;;10.97;100.00
84501;BME280;74725;44.210;17.906;2024-02-26T02:16:29;97212.25;;;11.05;100.00
84501;BME280;74725;44.210;17.906;2024-02-26T02:18:55;97206.31;;;11.07;100.00
84501;BME280;74725;44.210;17.906;2024-02-26T02:21:20;97216.34;;;11.00;100.00
84501;BME280;74725;44.210;17.906;2024-02-26T02:23:46;97215.16;;;11.11;100.00
84501;BME280;74725;44.210;17.906;2024-02-26T02:26:15;97207.34;;;11.00;100.00
84501;BME280;74725;44.210;17.906;2024-02-26T02:28:40;97203.69;;;11.03;100.00
84501;BME280;74725;44.210;17.906;2024-02-26T02:31:07;97206.16;;;11.10;100.00
84501;BME280;74725;44.210;17.906;2024-02-26T02:33:34;97199.31;;;11.15;100.00
84501;BME280;74725;44.210;17.906;2024-02-26T02:36:00;97196.91;;;11.17;100.00
84501;BME280;74725;44.210;17.906;2024-02-26T02:38:26;97203.69;;;11.03;100.00
84501;BME280;74725;44.210;17.906;2024-02-26T02:40:52;97209.19;;;11.03;100.00
84501;BME280;74725;44.210;17.906;2024-02-26T02:43:17;97206.00;;;11.05;100.00
84501;BME280;74725;44.210;17.906;2024-02-26T02:45:43;97197.78;;;11.05;100.00
84501;BME280;74725;44.210;17.906;2024-02-26T02:48:09;97196.25;;;11.04;100.00
84501;BME280;74725;44.210;17.906;2024-02-26T02:50:35;97208.41;;;11.02;100.00
84501;BME280;74725;44.210;17.906;2024-02-26T02:53:01;97201.41;;;11.01;100.00
84501;BME280;74725;44.210;17.906;2024-02-26T02:55:27;97204.16;;;11.01;100.00
84501;BME280;74725;44.210;17.906;2024-02-26T02:57:53;97209.63;;;11.01;100.00
84501;BME280;74725;44.210;17.906;2024-02-26T03:00:19;97190.47;;;11.01;100.00
84501;BME280;74725;44.210;17.906;2024-02-26T03:02:45;97196.97;;;10.95;100.00
84501;BME280;74725;44.210;17.906;2024-02-26T03:05:11;97208.19;;;10.88;100.00
84501;BME280;74725;44.210;17.906;2024-02-26T03:07:37;97192.22;;;10.86;100.00
84501;BME280;74725;44.210;17.906;2024-02-26T03:10:03;97185.31;;;11.04;100.00
84501;BME280;74725;44.210;17.906;2024-02-26T03:12:29;97191.47;;;10.95;100.00
84501;BME280;74725;44.210;17.906;2024-02-26T03:14:55;97181.47;;;11.01;100.00
84501;BME280;74725;44.210;17.906;2024-02-26T03:17:21;97181.84;;;11.12;100.00
84501;BME280;74725;44.210;17.906;2024-02-26T03:19:46;97185.06;;;11.20;100.00
84501;BME280;74725;44.210;17.906;2024-02-26T03:22:13;97184.66;;;11.40;100.00
84501;BME280;74725;44.210;17.906;2024-02-26T03:24:38;97183.06;;;11.20;100.00
84501;BME280;74725;44.210;17.906;2024-02-26T03:27:04;97190.22;;;11.18;100.00
84501;BME280;74725;44.210;17.906;2024-02-26T03:29:35;97190.25;;;11.27;100.00
84501;BME280;74725;44.210;17.906;2024-02-26T03:32:01;97184.31;;;11.29;100.00
84501;BME280;74725;44.210;17.906;2024-02-26T03:34:27;97189.66;;;11.32;100.00
84501;BME280;74725;44.210;17.906;2024-02-26T03:36:53;97184.03;;;11.36;100.00
84501;BME280;74725;44.210;17.906;2024-02-26T03:39:19;97192.13;;;11.39;100.00
84501;BME280;74725;44.210;17.906;2024-02-26T03:41:44;97197.28;;;11.37;100.00
84501;BME280;74725;44.210;17.906;2024-02-26T03:44:10;97192.75;;;11.43;100.00
84501;BME280;74725;44.210;17.906;2024-02-26T03:46:35;97191.22;;;11.42;100.00
84501;BME280;74725;44.210;17.906;2024-02-26T03:49:01;97192.75;;;11.43;100.00
84501;BME280;74725;44.210;17.906;2024-02-26T03:51:27;97186.38;;;11.46;100.00
84501;BME280;74725;44.210;17.906;2024-02-26T03:53:57;97186.50;;;11.52;100.00
84501;BME280;74725;44.210;17.906;2024-02-26T03:56:25;97191.84;;;11.56;100.00
84501;BME280;74725;44.210;17.906;2024-02-26T03:58:51;97191.84;;;11.56;100.00
84501;BME280;74725;44.210;17.906;2024-02-26T04:01:16;97192.63;;;11.56;100.00
84501;BME280;74725;44.210;17.906;2024-02-26T04:03:42;97192.75;;;11.43;100.00
84501;BME280;74725;44.210;17.906;2024-02-26T04:06:09;97186.38;;;11.46;100.00
84501;BME280;74725;44.210;17.906;2024-02-26T04:08:46;97194.13;;;11.48;100.00
84501;BME280;74725;44.210;17.906;2024-02-26T04:11:12;97191.66;;;11.41;100.00
84501;BME280;74725;44.210;17.906;2024-02-26T04:13:38;97203.66;;;11.25;100.00
84501;BME280;74725;44.210;17.906;2024-02-26T04:16:05;97192.69;;;11.25;100.00
84501;BME280;74725;44.210;17.906;2024-02-26T04:18:32;97200.16;;;11.24;100.00
84501;BME280;74725;44.210;17.906;2024-02-26T04:20:57;97199.81;;;11.22;100.00
84501;BME280;74725;44.210;17.906;2024-02-26T04:23:23;97208.19;;;11.19;100.00
84501;BME280;74725;44.210;17.906;2024-02-26T04:25:49;97198.75;;;11.20;100.00
84501;BME280;74725;44.210;17.906;2024-02-26T04:28:14;97194.59;;;11.06;100.00
84501;BME280;74725;44.210;17.906;2024-02-26T04:30:41;97199.03;;;11.13;100.00
84501;BME280;74725;44.210;17.906;2024-02-26T04:33:07;97201.19;;;11.18;100.00
84501;BME280;74725;44.210;17.906;2024-02-26T04:35:32;97200.63;;;11.32;100.00
84501;BME280;74725;44.210;17.906;2024-02-26T04:37:58;97213.44;;;11.35;100.00
84501;BME280;74725;44.210;17.906;2024-02-26T04:40:23;97211.59;;;11.41;100.00
84501;BME280;74725;44.210;17.906;2024-02-26T04:42:49;97205.03;;;11.30;100.00
84501;BME280;74725;44.210;17.906;2024-02-26T04:45:15;97204.59;;;11.31;100.00
84501;BME280;74725;44.210;17.906;2024-02-26T04:47:41;97209.59;;;11.33;100.00
84501;BME280;74725;44.210;17.906;2024-02-26T04:50:06;97206.13;;;11.41;100.00
84501;BME280;74725;44.210;17.906;2024-02-26T04:52:32;97219.44;;;11.12;100.00
84501;BME280;74725;44.210;17.906;2024-02-26T04:54:58;97217.19;;;11.19;100.00
84501;BME280;74725;44.210;17.906;2024-02-26T04:57:25;97214.13;;;11.17;100.00
84501;BME280;74725;44.210;17.906;2024-02-26T04:59:51;97225.22;;;11.14;100.00
84501;BME280;74725;44.210;17.906;2024-02-26T05:02:17;97209.72;;;11.20;100.00
84501;BME280;74725;44.210;17.906;2024-02-26T05:04:43;97212.47;;;11.20;100.00
84501;BME280;74725;44.210;17.906;2024-02-26T05:07:08;97214.88;;;11.18;100.00
84501;BME280;74725;44.210;17.906;2024-02-26T05:09:34;97224.78;;;11.15;100.00
84501;BME280;74725;44.210;17.906;2024-02-26T05:12:00;97223.50;;;11.07;100.00
84501;BME280;74725;44.210;17.906;2024-02-26T05:14:26;97199.94;;;11.10;100.00
84501;BME280;74725;44.210;17.906;2024-02-26T05:16:51;97206.34;;;11.16;100.00
84501;BME280;74725;44.210;17.906;2024-02-26T05:19:17;97206.03;;;11.14;100.00
84501;BME280;74725;44.210;17.906;2024-02-26T05:21:42;97205.28;;;11.13;100.00
84501;BME280;74725;44.210;17.906;2024-02-26T05:24:09;97208.50;;;11.21;100.00
84501;BME280;74725;44.210;17.906;2024-02-26T05:26:35;97211.06;;;11.15;100.00
84501;BME280;74725;44.210;17.906;2024-02-26T05:29:01;97216.72;;;11.21;100.00
84501;BME280;74725;44.210;17.906;2024-02-26T05:31:27;97217.00;;;11.14;100.00
84501;BME280;74725;44.210;17.906;2024-02-26T05:33:54;97222.44;;;11.05;100.00
84501;BME280;74725;44.210;17.906;2024-02-26T05:36:20;97205.00;;;10.89;100.00
84501;BME280;74725;44.210;17.906;2024-02-26T05:38:47;97217.22;;;10.97;100.00
84501;BME280;74725;44.210;17.906;2024-02-26T05:41:15;97217.09;;;11.01;100.00
84501;BME280;74725;44.210;17.906;2024-02-26T05:43:41;97215.06;;;10.92;100.00
84501;BME280;74725;44.210;17.906;2024-02-26T05:46:07;97225.75;;;10.99;100.00
84501;BME280;74725;44.210;17.906;2024-02-26T05:48:32;97227.56;;;10.93;100.00
84501;BME280;74725;44.210;17.906;2024-02-26T05:50:58;97228.19;;;10.97;100.00
84501;BME280;74725;44.210;17.906;2024-02-26T05:53:23;97233.19;;;10.99;100.00
84501;BME280;74725;44.210;17.906;2024-02-26T05:55:49;97221.84;;;11.10;100.00
84501;BME280;74725;44.210;17.906;2024-02-26T05:58:15;97226.56;;;11.09;100.00
84501;BME280;74725;44.210;17.906;2024-02-26T06:00:40;97227.34;;;11.19;100.00
84501;BME280;74725;44.210;17.906;2024-02-26T06:03:06;97238.47;;;11.15;100.00
84501;BME280;74725;44.210;17.906;2024-02-26T06:05:32;97239.28;;;11.25;100.00
84501;BME280;74725;44.210;17.906;2024-02-26T06:07:57;97227.44;;;11.37;100.00
84501;BME280;74725;44.210;17.906;2024-02-26T06:10:23;97232.34;;;11.42;100.00
84501;BME280;74725;44.210;17.906;2024-02-26T06:12:49;97246.06;;;11.42;100.00
84501;BME280;74725;44.210;17.906;2024-02-26T06:15:15;97249.41;;;11.46;100.00
84501;BME280;74725;44.210;17.906;2024-02-26T06:17:41;97250.47;;;11.49;100.00
84501;BME280;74725;44.210;17.906;2024-02-26T06:20:07;97248.69;;;11.64;100.00
84501;BME280;74725;44.210;17.906;2024-02-26T06:22:39;97255.53;;;11.50;100.00
84501;BME280;74725;44.210;17.906;2024-02-26T06:25:06;97254.53;;;11.35;100.00
84501;BME280;74725;44.210;17.906;2024-02-26T06:27:31;97255.97;;;11.49;100.00
84501;BME280;74725;44.210;17.906;2024-02-26T06:29:57;97256.56;;;11.44;100.00
84501;BME280;74725;44.210;17.906;2024-02-26T06:32:23;97256.81;;;11.27;100.00
84501;BME280;74725;44.210;17.906;2024-02-26T06:34:48;97258.88;;;11.55;100.00
84501;BME280;74725;44.210;17.906;2024-02-26T06:37:15;97258.19;;;11.82;100.00
84501;BME280;74725;44.210;17.906;2024-02-26T06:39:41;97264.59;;;11.79;100.00
84501;BME280;74725;44.210;17.906;2024-02-26T06:42:07;97256.72;;;11.99;100.00
84501;BME280;74725;44.210;17.906;2024-02-26T06:44:33;97253.84;;;12.03;100.00
84501;BME280;74725;44.210;17.906;2024-02-26T06:46:59;97265.00;;;12.08;100.00
84501;BME280;74725;44.210;17.906;2024-02-26T06:49:25;97272.16;;;12.15;100.00
84501;BME280;74725;44.210;17.906;2024-02-26T06:51:51;97262.25;;;12.08;100.00
84501;BME280;74725;44.210;17.906;2024-02-26T06:54:17;97268.97;;;12.16;100.00
84501;BME280;74725;44.210;17.906;2024-02-26T06:56:43;97262.81;;;11.94;100.00
84501;BME280;74725;44.210;17.906;2024-02-26T06:59:09;97262.03;;;11.84;100.00
84501;BME280;74725;44.210;17.906;2024-02-26T07:01:35;97267.06;;;11.86;100.00
84501;BME280;74725;44.210;17.906;2024-02-26T07:04:02;97272.28;;;11.93;100.00
84501;BME280;74725;44.210;17.906;2024-02-26T07:06:28;97265.72;;;11.99;100.00
84501;BME280;74725;44.210;17.906;2024-02-26T07:08:53;97272.91;;;12.15;100.00
84501;BME280;74725;44.210;17.906;2024-02-26T07:11:19;97278.84;;;12.05;100.00
84501;BME280;74725;44.210;17.906;2024-02-26T07:13:46;97279.63;;;12.05;100.00
84501;BME280;74725;44.210;17.906;2024-02-26T07:16:11;97273.97;;;12.09;100.00
84501;BME280;74725;44.210;17.906;2024-02-26T07:18:39;97277.66;;;12.24;100.00
84501;BME280;74725;44.210;17.906;2024-02-26T07:21:05;97285.59;;;12.40;100.00
84501;BME280;74725;44.210;17.906;2024-02-26T07:23:34;97273.22;;;12.72;100.00
84501;BME280;74725;44.210;17.906;2024-02-26T07:25:59;97273.00;;;13.13;100.00
84501;BME280;74725;44.210;17.906;2024-02-26T07:28:25;97271.50;;;13.03;100.00
84501;BME280;74725;44.210;17.906;2024-02-26T07:30:51;97275.31;;;12.96;100.00
84501;BME280;74725;44.210;17.906;2024-02-26T07:33:16;97279.16;;;12.80;100.00
84501;BME280;74725;44.210;17.906;2024-02-26T07:35:42;97289.53;;;12.85;100.00
84501;BME280;74725;44.210;17.906;2024-02-26T07:38:08;97282.22;;;12.91;100.00
84501;BME280;74725;44.210;17.906;2024-02-26T07:40:34;97284.00;;;13.04;100.00
84501;BME280;74725;44.210;17.906;2024-02-26T07:43:00;97272.72;;;13.02;100.00
84501;BME280;74725;44.210;17.906;2024-02-26T07:45:26;97274.16;;;13.39;98.76
84501;BME280;74725;44.210;17.906;2024-02-26T07:47:52;97272.75;;;13.53;96.87
84501;BME280;74725;44.210;17.906;2024-02-26T07:50:18;97272.94;;;13.74;98.56
84501;BME280;74725;44.210;17.906;2024-02-26T07:52:45;97280.09;;;13.80;96.21
84501;BME280;74725;44.210;17.906;2024-02-26T07:55:12;97281.69;;;13.96;96.91
84501;BME280;74725;44.210;17.906;2024-02-26T07:57:42;97297.13;;;14.03;95.79
84501;BME280;74725;44.210;17.906;2024-02-26T08:00:09;97288.13;;;14.17;95.03
84501;BME280;74725;44.210;17.906;2024-02-26T08:02:38;97282.88;;;14.28;95.27
84501;BME280;74725;44.210;17.906;2024-02-26T08:05:04;97291.94;;;14.43;93.38
84501;BME280;74725;44.210;17.906;2024-02-26T08:07:30;97282.72;;;14.71;93.49
84501;BME280;74725;44.210;17.906;2024-02-26T08:09:55;97282.94;;;14.82;91.33
84501;BME280;74725;44.210;17.906;2024-02-26T08:12:21;97284.56;;;14.88;90.53
84501;BME280;74725;44.210;17.906;2024-02-26T08:14:46;97279.25;;;15.00;89.33
84501;BME280;74725;44.210;17.906;2024-02-26T08:17:12;97279.44;;;14.96;88.29
84501;BME280;74725;44.210;17.906;2024-02-26T08:19:39;97271.91;;;14.97;89.03
84501;BME280;74725;44.210;17.906;2024-02-26T08:22:05;97263.56;;;14.91;88.87
84501;BME280;74725;44.210;17.906;2024-02-26T08:24:30;97255.84;;;14.80;89.54
84501;BME280;74725;44.210;17.906;2024-02-26T08:26:56;97257.09;;;14.79;91.29
84501;BME280;74725;44.210;17.906;2024-02-26T08:29:22;97264.78;;;14.75;90.51
84501;BME280;74725;44.210;17.906;2024-02-26T08:31:47;97255.75;;;14.89;89.39
84501;BME280;74725;44.210;17.906;2024-02-26T08:34:14;97259.63;;;14.83;89.53
84501;BME280;74725;44.210;17.906;2024-02-26T08:36:39;97261.09;;;14.93;90.69
84501;BME280;74725;44.210;17.906;2024-02-26T08:39:05;97260.72;;;15.00;89.56
84501;BME280;74725;44.210;17.906;2024-02-26T08:41:31;97249.69;;;15.00;89.54
84501;BME280;74725;44.210;17.906;2024-02-26T08:43:56;97251.28;;;14.92;88.35
84501;BME280;74725;44.210;17.906;2024-02-26T08:46:23;97263.75;;;15.17;88.64
84501;BME280;74725;44.210;17.906;2024-02-26T08:48:49;97266.47;;;15.47;87.10
84501;BME280;74725;44.210;17.906;2024-02-26T08:51:14;97272.06;;;15.52;88.85
84501;BME280;74725;44.210;17.906;2024-02-26T08:53:40;97271.81;;;15.21;87.05
84501;BME280;74725;44.210;17.906;2024-02-26T08:56:06;97264.50;;;14.88;90.46
84501;BME280;74725;44.210;17.906;2024-02-26T08:58:36;97263.59;;;14.52;91.98
84501;BME280;74725;44.210;17.906;2024-02-26T09:01:03;97268.59;;;14.15;93.27
84501;BME280;74725;44.210;17.906;2024-02-26T09:03:28;97269.47;;;14.21;94.24
84501;BME280;74725;44.210;17.906;2024-02-26T09:05:54;97262.78;;;14.13;93.11
84501;BME280;74725;44.210;17.906;2024-02-26T09:08:19;97257.34;;;14.04;94.31
84501;BME280;74725;44.210;17.906;2024-02-26T09:10:45;97257.44;;;14.09;95.28
84501;BME280;74725;44.210;17.906;2024-02-26T09:13:11;97261.34;;;14.03;96.07
84501;BME280;74725;44.210;17.906;2024-02-26T09:15:36;97264.72;;;13.98;95.35
84501;BME280;74725;44.210;17.906;2024-02-26T09:18:02;97256.00;;;13.99;95.41
84501;BME280;74725;44.210;17.906;2024-02-26T09:20:28;97262.56;;;14.02;95.70
84501;BME280;74725;44.210;17.906;2024-02-26T09:22:54;97257.69;;;13.97;96.10
84501;BME280;74725;44.210;17.906;2024-02-26T09:25:19;97252.94;;;13.73;97.26
84501;BME280;74725;44.210;17.906;2024-02-26T09:31:32;97252.19;;;13.73;97.72
84501;BME280;74725;44.210;17.906;2024-02-26T09:33:59;97249.53;;;13.78;99.77
84501;BME280;74725;44.210;17.906;2024-02-26T09:40:12;97243.69;;;13.85;98.91
84501;BME280;74725;44.210;17.906;2024-02-26T09:42:43;97243.69;;;13.85;98.87
84501;BME280;74725;44.210;17.906;2024-02-26T09:45:12;97232.63;;;13.94;97.24
84501;BME280;74725;44.210;17.906;2024-02-26T09:51:28;97229.22;;;14.00;100.00
84501;BME280;74725;44.210;17.906;2024-02-26T09:53:54;97227.13;;;13.94;99.58
84501;BME280;74725;44.210;17.906;2024-02-26T09:56:21;97230.31;;;14.17;98.80
84501;BME280;74725;44.210;17.906;2024-02-26T09:58:48;97225.22;;;14.25;98.73
84501;BME280;74725;44.210;17.906;2024-02-26T10:01:19;97224.69;;;14.35;98.43
84501;BME280;74725;44.210;17.906;2024-02-26T10:03:52;97219.13;;;14.44;98.78
84501;BME280;74725;44.210;17.906;2024-02-26T10:06:21;97205.53;;;14.56;98.34
84501;BME280;74725;44.210;17.906;2024-02-26T10:09:09;97219.06;;;14.68;95.15
84501;BME280;74725;44.210;17.906;2024-02-26T10:11:51;97219.47;;;14.76;98.14
84501;BME280;74725;44.210;17.906;2024-02-26T10:14:22;97216.91;;;14.87;95.95
84501;BME280;74725;44.210;17.906;2024-02-26T10:16:50;97208.03;;;14.98;95.02
84501;BME280;74725;44.210;17.906;2024-02-26T10:19:39;97209.06;;;15.15;94.55
84501;BME280;74725;44.210;17.906;2024-02-26T10:22:33;97220.41;;;15.03;95.87
84501;BME280;74725;44.210;17.906;2024-02-26T10:25:05;97217.63;;;15.17;93.97
84501;BME280;74725;44.210;17.906;2024-02-26T10:27:32;97213.63;;;15.19;95.16
84501;BME280;74725;44.210;17.906;2024-02-26T10:29:58;97213.72;;;15.24;93.61
84501;BME280;74725;44.210;17.906;2024-02-26T10:32:35;97207.09;;;15.51;91.32
84501;BME280;74725;44.210;17.906;2024-02-26T10:35:02;97206.34;;;15.65;91.68
84501;BME280;74725;44.210;17.906;2024-02-26T10:37:30;97207.63;;;15.70;89.85
84501;BME280;74725;44.210;17.906;2024-02-26T10:39:56;97205.25;;;15.63;89.99
84501;BME280;74725;44.210;17.906;2024-02-26T10:42:22;97195.38;;;15.56;89.73
84501;BME280;74725;44.210;17.906;2024-02-26T10:44:49;97193.44;;;15.77;91.49
84501;BME280;74725;44.210;17.906;2024-02-26T10:47:16;97182.00;;;15.84;91.34
84501;BME280;74725;44.210;17.906;2024-02-26T10:49:50;97186.13;;;15.95;91.42
84501;BME280;74725;44.210;17.906;2024-02-26T10:52:19;97181.75;;;16.29;89.78
84501;BME280;74725;44.210;17.906;2024-02-26T10:54:54;97176.75;;;16.33;89.39
84501;BME280;74725;44.210;17.906;2024-02-26T10:57:22;97170.56;;;16.38;91.28
84501;BME280;74725;44.210;17.906;2024-02-26T10:59:51;97165.13;;;16.49;87.96
84501;BME280;74725;44.210;17.906;2024-02-26T11:02:20;97157.94;;;16.57;87.88
84501;BME280;74725;44.210;17.906;2024-02-26T11:04:46;97156.59;;;16.73;87.64
84501;BME280;74725;44.210;17.906;2024-02-26T11:07:12;97144.81;;;16.78;87.61
84501;BME280;74725;44.210;17.906;2024-02-26T11:09:42;97148.63;;;16.81;87.99
84501;BME280;74725;44.210;17.906;2024-02-26T11:12:17;97141.72;;;17.02;87.71
84501;BME280;74725;44.210;17.906;2024-02-26T11:14:45;97138.75;;;17.06;85.18
84501;BME280;74725;44.210;17.906;2024-02-26T11:17:13;97134.25;;;17.08;86.20
84501;BME280;74725;44.210;17.906;2024-02-26T11:19:43;97135.06;;;17.20;84.02
84501;BME280;74725;44.210;17.906;2024-02-26T11:22:10;97129.56;;;17.26;83.78
84501;BME280;74725;44.210;17.906;2024-02-26T11:24:40;97122.53;;;17.25;85.11
84501;BME280;74725;44.210;17.906;2024-02-26T11:27:10;97112.66;;;17.18;83.90
84501;BME280;74725;44.210;17.906;2024-02-26T11:29:53;97111.69;;;17.21;83.24
84501;BME280;74725;44.210;17.906;2024-02-26T11:32:24;97109.00;;;17.32;83.21
84501;BME280;74725;44.210;17.906;2024-02-26T11:34:51;97099.47;;;17.39;83.93
84501;BME280;74725;44.210;17.906;2024-02-26T11:37:19;97097.75;;;17.47;81.60
84501;BME280;74725;44.210;17.906;2024-02-26T11:39:45;97092.75;;;17.57;81.19
84501;BME280;74725;44.210;17.906;2024-02-26T11:42:14;97094.06;;;17.67;81.37
84501;BME280;74725;44.210;17.906;2024-02-26T11:44:40;97095.41;;;17.77;80.92
84501;BME280;74725;44.210;17.906;2024-02-26T11:47:18;97102.00;;;18.02;82.56
84501;BME280;74725;44.210;17.906;2024-02-26T11:49:44;97103.34;;;18.24;81.77
84501;BME280;74725;44.210;17.906;2024-02-26T11:52:10;97086.97;;;18.37;82.66
84501;BME280;74725;44.210;17.906;2024-02-26T11:54:51;97098.56;;;18.52;79.71
84501;BME280;74725;44.210;17.906;2024-02-26T12:05:11;97096.75;;;19.34;76.75
84501;BME280;74725;44.210;17.906;2024-02-26T12:07:47;97093.94;;;19.45;75.90
84501;BME280;74725;44.210;17.906;2024-02-26T12:10:22;97085.31;;;19.71;74.28
84501;BME280;74725;44.210;17.906;2024-02-26T12:13:15;97079.13;;;19.95;75.06
84501;BME280;74725;44.210;17.906;2024-02-26T12:15:44;97074.75;;;20.11;72.99
84501;BME280;74725;44.210;17.906;2024-02-26T12:18:15;97074.16;;;20.23;71.51
84501;BME280;74725;44.210;17.906;2024-02-26T12:20:43;97068.19;;;20.49;71.74
84501;BME280;74725;44.210;17.906;2024-02-26T12:23:14;97069.63;;;20.62;69.75
84501;BME280;74725;44.210;17.906;2024-02-26T12:25:40;97061.88;;;20.79;68.80
84501;BME280;74725;44.210;17.906;2024-02-26T12:28:07;97058.69;;;20.94;67.55
84501;BME280;74725;44.210;17.906;2024-02-26T12:30:33;97059.63;;;20.77;66.93
84501;BME280;74725;44.210;17.906;2024-02-26T12:33:00;97061.47;;;20.69;66.07
84501;BME280;74725;44.210;17.906;2024-02-26T12:35:28;97059.25;;;20.62;66.68
84501;BME280;74725;44.210;17.906;2024-02-26T12:37:57;97057.00;;;20.55;67.45
84501;BME280;74725;44.210;17.906;2024-02-26T12:40:23;97057.59;;;20.42;67.04
84501;BME280;74725;44.210;17.906;2024-02-26T12:42:49;97059.63;;;20.42;67.28
84501;BME280;74725;44.210;17.906;2024-02-26T12:45:15;97056.31;;;20.49;66.46
84501;BME280;74725;44.210;17.906;2024-02-26T12:47:42;97047.44;;;20.56;65.86
84501;BME280;74725;44.210;17.906;2024-02-26T12:50:09;97052.09;;;20.72;65.24
84501;BME280;74725;44.210;17.906;2024-02-26T12:52:38;97050.09;;;20.67;65.16
84501;BME280;74725;44.210;17.906;2024-02-26T12:55:05;97054.59;;;20.76;64.69
84501;BME280;74725;44.210;17.906;2024-02-26T12:57:36;97052.56;;;20.76;63.81
84501;BME280;74725;44.210;17.906;2024-02-26T13:00:03;97047.56;;;20.94;62.98
84501;BME280;74725;44.210;17.906;2024-02-26T13:02:30;97043.69;;;21.27;62.01